Huvudsida
METAR-TAF:

METAR-TAF

Flygplatser :

Basra International Airport

Basra, Irak

latitud: 30-32-56N, longitud: 47-39-45E, höjd: 1 m

Aktuellt väderrapport

Denna rapport gjordes för 8 timmar och 56 minuter sedan, klockan 11:00 UTC
Vind 4 kt från nordväst
Temperatur 31°C
Fuktighet 13%
Tryck 1016 hPa
Sikt 10 km eller mer
Inga moln under 1 500 m eller inga cumulonimbus

METAR: ORMM 111100Z 32004KT CAVOK 31/M01 Q1016 NOSIG

Tid: 22:56 (19:56 UTC)

Väderprognos

Denna rapport gjordes för 33 timmar och 56 minuter sedan, klockan 10:00 UTC
Prognos gäller från 10 kl. 12 UTC till 11 kl. 12 UTC
Vind 5 kt varierande vindriktning
Sikt 10 km eller mer
Inga moln under 1 500 m eller inga cumulonimbus

TAF: ORMM 101000Z 1012/1112 VRB05KT CAVOK

Aktuella väderrapporter och prognoser från 4000 flygplatser (METAR- och TAF-rapporter).

De tillgängliga stationerna syns som gula och röda prickar på kartan.

För musen över prickarna för att se namnen på stationerna.

Klicka sedan för att få väderrapporter och prognoser.

För att ändra kartan: Klicka på de gröna knapparna med ett svart kors på för att zooma in; den gröna knappen med ett streck på för att zooma ut; eller på de gröna pilarna för angränsande kartor.


METAR-TAF: